createdAt,value
2023-02-02T00:00:25.298Z,4.07
2023-02-02T00:02:55.177Z,3.17
2023-02-02T00:05:23.783Z,3.38
2023-02-02T00:07:52.417Z,3.83
2023-02-02T00:10:20.760Z,3.88
2023-02-02T00:12:49.089Z,2.45
2023-02-02T00:15:17.526Z,3.47
2023-02-02T00:17:45.828Z,3.45
2023-02-02T00:20:15.510Z,4.13
2023-02-02T00:22:43.852Z,6.55
2023-02-02T00:25:12.212Z,3.10
2023-02-02T00:27:41.730Z,4.45
2023-02-02T00:30:11.341Z,3.58
2023-02-02T00:32:43.356Z,7.10
2023-02-02T00:35:11.811Z,2.72
2023-02-02T00:37:41.580Z,4.63
2023-02-02T00:40:11.304Z,4.20
2023-02-02T00:42:39.670Z,4.40
2023-02-02T00:45:16.989Z,3.97
2023-02-02T00:47:46.055Z,3.20
2023-02-02T00:50:15.459Z,4.30
2023-02-02T00:52:45.162Z,5.55
2023-02-02T00:55:13.517Z,5.25
2023-02-02T00:57:44.205Z,5.18
2023-02-02T01:00:14.300Z,4.53
2023-02-02T01:02:42.696Z,5.57
2023-02-02T01:05:14.371Z,4.60
2023-02-02T01:11:37.333Z,4.72
2023-02-02T01:14:05.771Z,4.45
2023-02-02T01:16:34.130Z,7.38
2023-02-02T01:19:02.561Z,3.08
2023-02-02T01:21:30.983Z,3.78
2023-02-02T01:23:59.336Z,5.35
2023-02-02T01:26:27.751Z,5.47
2023-02-02T01:28:58.733Z,6.07
2023-02-02T01:31:27.204Z,6.70
2023-02-02T01:33:55.614Z,8.65
2023-02-02T01:36:24.657Z,2.65
2023-02-02T01:38:53.099Z,3.20
2023-02-02T01:41:22.496Z,4.45
2023-02-02T01:43:54.826Z,5.13
2023-02-02T01:46:25.952Z,3.83
2023-02-02T01:49:02.537Z,4.40
2023-02-02T01:51:36.563Z,5.20
2023-02-02T01:54:06.260Z,2.92
2023-02-02T01:56:36.062Z,6.50
2023-02-02T01:59:04.539Z,6.22
2023-02-02T02:01:34.317Z,3.80
2023-02-02T02:04:02.638Z,3.58
2023-02-02T02:06:30.980Z,3.90
2023-02-02T02:09:01.260Z,3.05
2023-02-02T02:11:29.562Z,3.85
2023-02-02T02:14:19.999Z,3.63
2023-02-02T02:16:55.899Z,5.07
2023-02-02T02:20:07.832Z,4.50
2023-02-02T02:23:03.123Z,4.82
2023-02-02T02:25:59.811Z,5.63
2023-02-02T02:29:04.424Z,4.22
2023-02-02T02:32:05.858Z,4.63
2023-02-02T02:34:41.904Z,4.28
2023-02-02T02:37:11.606Z,3.15
2023-02-02T02:39:40.981Z,2.92
2023-02-02T02:42:10.801Z,6.90
2023-02-02T02:44:41.943Z,4.80
2023-02-02T02:47:14.566Z,4.25
2023-02-02T02:49:45.944Z,6.03
2023-02-02T02:52:14.368Z,6.10
2023-02-02T02:54:45.071Z,2.63
2023-02-02T02:57:30.705Z,5.93
2023-02-02T03:00:02.283Z,5.85
2023-02-02T03:02:37.249Z,6.95
2023-02-02T03:05:37.171Z,5.00
2023-02-02T03:08:08.918Z,3.38
2023-02-02T03:10:38.671Z,4.38
2023-02-02T03:13:08.757Z,2.30
2023-02-02T03:15:37.209Z,3.92
2023-02-02T03:18:11.847Z,4.38
2023-02-02T03:20:40.191Z,5.43
2023-02-02T03:23:10.949Z,2.63
2023-02-02T03:25:39.297Z,3.28
2023-02-02T03:28:07.811Z,5.60
2023-02-02T03:30:36.195Z,4.57
2023-02-02T03:33:06.016Z,4.80
2023-02-02T03:35:34.371Z,3.65
2023-02-02T03:38:05.414Z,3.33
2023-02-02T03:40:36.788Z,3.05
2023-02-02T03:43:07.894Z,3.92
2023-02-02T03:45:37.242Z,4.72
2023-02-02T03:48:07.631Z,2.55
2023-02-02T03:50:37.176Z,5.35
2023-02-02T03:53:06.019Z,3.67
2023-02-02T03:55:35.079Z,4.25
2023-02-02T03:58:03.390Z,3.67
2023-02-02T04:00:31.679Z,3.65
2023-02-02T04:03:00.222Z,2.85
2023-02-02T04:05:29.914Z,6.38
2023-02-02T04:07:58.266Z,4.38
2023-02-02T04:10:26.629Z,3.72
2023-02-02T04:12:54.979Z,5.57
2023-02-02T04:15:23.631Z,3.60
2023-02-02T04:17:52.212Z,3.75
2023-02-02T04:20:20.680Z,4.85
2023-02-02T04:22:50.747Z,3.85
2023-02-02T04:25:19.167Z,8.50
2023-02-02T04:27:47.518Z,3.08
2023-02-02T04:30:15.954Z,4.20
2023-02-02T04:32:44.315Z,3.78
2023-02-02T04:35:12.736Z,3.55
2023-02-02T04:37:41.048Z,5.72
2023-02-02T04:40:12.153Z,5.90
2023-02-02T04:42:40.481Z,4.90
2023-02-02T04:45:12.501Z,3.45
2023-02-02T04:47:40.978Z,5.38
2023-02-02T04:50:10.079Z,5.80
2023-02-02T04:52:38.383Z,4.93
2023-02-02T04:55:07.255Z,4.22
2023-02-02T04:57:36.892Z,2.63
2023-02-02T05:00:05.846Z,6.28
2023-02-02T05:02:36.763Z,5.35
2023-02-02T05:05:05.719Z,3.60
2023-02-02T05:07:34.101Z,4.45
2023-02-02T05:10:02.473Z,5.75
2023-02-02T05:12:33.209Z,3.58
2023-02-02T05:15:03.544Z,3.63
2023-02-02T05:17:35.054Z,4.18
2023-02-02T05:20:06.061Z,3.67
2023-02-02T05:22:35.148Z,6.78
2023-02-02T05:25:03.658Z,3.75
2023-02-02T05:27:31.958Z,5.95
2023-02-02T05:30:00.289Z,3.75
2023-02-02T05:32:30.126Z,5.28
2023-02-02T05:34:58.475Z,3.22
2023-02-02T05:37:26.768Z,3.97
2023-02-02T05:39:55.149Z,4.28
2023-02-02T05:42:26.288Z,5.30
2023-02-02T05:44:57.176Z,3.42
2023-02-02T05:47:25.572Z,5.40
2023-02-02T05:49:55.390Z,4.53
2023-02-02T05:52:25.206Z,5.53
2023-02-02T05:54:53.573Z,3.78
2023-02-02T05:57:21.870Z,3.88
2023-02-02T05:59:53.248Z,4.57
2023-02-02T06:02:21.609Z,8.60
2023-02-02T06:04:49.936Z,6.78
2023-02-02T06:07:24.325Z,2.97
2023-02-02T06:09:52.652Z,2.45
2023-02-02T06:12:21.134Z,3.53
2023-02-02T06:14:49.448Z,4.97
2023-02-02T06:17:17.715Z,3.47
2023-02-02T06:19:46.023Z,3.88
2023-02-02T06:22:14.369Z,3.00
2023-02-02T06:24:44.071Z,4.03
2023-02-02T06:27:12.408Z,4.25
2023-02-02T06:29:40.768Z,7.50
2023-02-02T06:32:09.102Z,7.25
2023-02-02T06:34:37.464Z,8.48
2023-02-02T06:37:05.751Z,10.02
2023-02-02T06:39:34.091Z,12.50
2023-02-02T06:42:19.334Z,16.70
2023-02-02T06:44:49.335Z,13.93
2023-02-02T06:47:17.888Z,13.27
2023-02-02T06:49:48.657Z,9.50
2023-02-02T06:52:17.011Z,10.70
2023-02-02T06:54:45.312Z,11.02
2023-02-02T06:57:14.969Z,7.88
2023-02-02T06:59:43.279Z,7.82
2023-02-02T07:02:24.156Z,14.43
2023-02-02T07:04:52.811Z,8.13
2023-02-02T07:07:21.159Z,6.78
2023-02-02T07:09:57.957Z,9.85
2023-02-02T07:12:28.275Z,11.38
2023-02-02T07:14:56.843Z,13.40
2023-02-02T07:17:25.281Z,9.90
2023-02-02T07:19:53.576Z,8.68
2023-02-02T07:22:21.863Z,8.25
2023-02-02T07:24:50.187Z,8.10
2023-02-02T07:27:18.467Z,8.15
2023-02-02T07:29:48.099Z,8.48
2023-02-02T07:32:16.400Z,7.88
2023-02-02T07:34:45.172Z,4.78
2023-02-02T07:37:13.511Z,6.55
2023-02-02T07:39:43.340Z,10.85
2023-02-02T07:42:12.348Z,5.47
2023-02-02T07:44:40.678Z,5.05
2023-02-02T07:47:10.375Z,4.13
2023-02-02T07:49:38.672Z,4.93
2023-02-02T07:52:07.058Z,9.02
2023-02-02T07:54:35.410Z,8.90
2023-02-02T07:57:03.709Z,6.90
2023-02-02T07:59:32.549Z,3.67
2023-02-02T08:02:01.117Z,10.05
2023-02-02T08:04:33.421Z,5.68
2023-02-02T08:07:02.073Z,12.40
2023-02-02T08:09:31.106Z,29.63
2023-02-02T08:12:02.582Z,34.88
2023-02-02T08:14:31.013Z,35.78
2023-02-02T08:16:59.331Z,38.45
2023-02-02T08:19:27.688Z,30.67
2023-02-02T08:21:57.391Z,37.33
2023-02-02T08:24:25.762Z,32.45
2023-02-02T08:26:54.176Z,25.30
2023-02-02T08:29:22.563Z,32.85
2023-02-02T08:31:50.957Z,24.45
2023-02-02T08:34:21.788Z,24.15
2023-02-02T08:36:50.091Z,17.73
2023-02-02T08:39:19.756Z,23.20
2023-02-02T08:41:50.030Z,20.60
2023-02-02T08:44:18.400Z,35.42
2023-02-02T08:46:48.171Z,17.23
2023-02-02T08:49:16.741Z,11.10
2023-02-02T08:51:45.075Z,15.55
2023-02-02T08:54:13.522Z,13.35
2023-02-02T08:56:43.244Z,10.93
2023-02-02T08:59:11.607Z,13.05
2023-02-02T09:01:42.395Z,11.35
2023-02-02T09:04:15.721Z,11.45
2023-02-02T09:06:44.172Z,9.38
2023-02-02T09:09:13.714Z,9.07
2023-02-02T09:11:46.162Z,11.18
2023-02-02T09:14:14.888Z,10.65
2023-02-02T09:16:43.286Z,10.32
2023-02-02T09:19:14.500Z,8.88
2023-02-02T09:21:42.788Z,8.18
2023-02-02T09:24:11.900Z,9.80
2023-02-02T09:26:40.483Z,8.25
2023-02-02T09:29:17.590Z,8.32
2023-02-02T09:31:46.995Z,5.78
2023-02-02T09:34:15.959Z,8.52
2023-02-02T09:36:44.454Z,7.78
2023-02-02T09:39:14.886Z,6.95
2023-02-02T09:42:05.626Z,9.57
2023-02-02T09:44:58.892Z,6.75
2023-02-02T09:47:36.270Z,9.65
2023-02-02T09:50:07.079Z,5.60
2023-02-02T09:52:38.946Z,6.55
2023-02-02T09:55:14.764Z,8.57
2023-02-02T09:57:44.850Z,7.10
2023-02-02T10:00:24.536Z,5.13
2023-02-02T10:02:52.840Z,5.80
2023-02-02T10:05:22.608Z,6.85
2023-02-02T10:07:54.324Z,6.07
2023-02-02T10:10:25.844Z,4.78
2023-02-02T10:12:55.599Z,4.03
2023-02-02T10:15:32.510Z,6.07
2023-02-02T10:18:05.826Z,5.97
2023-02-02T10:20:38.322Z,5.13
2023-02-02T10:23:13.045Z,6.43
2023-02-02T10:25:41.587Z,4.68
2023-02-02T10:28:15.164Z,5.03
2023-02-02T10:30:46.402Z,5.53
2023-02-02T10:33:20.454Z,5.43
2023-02-02T10:35:51.336Z,3.70
2023-02-02T10:38:24.866Z,5.93
2023-02-02T10:41:00.296Z,8.63
2023-02-02T10:43:47.804Z,5.03
2023-02-02T10:46:20.252Z,6.15
2023-02-02T10:48:49.240Z,7.25
2023-02-02T10:51:21.429Z,6.82
2023-02-02T10:53:52.296Z,5.03
2023-02-02T10:56:22.032Z,4.38
2023-02-02T10:58:53.343Z,4.90
2023-02-02T11:01:23.409Z,6.32
2023-02-02T11:04:12.064Z,4.30
2023-02-02T11:06:49.745Z,7.28
2023-02-02T11:09:22.275Z,5.40
2023-02-02T11:11:55.468Z,3.75
2023-02-02T11:14:33.668Z,5.28
2023-02-02T11:17:05.788Z,3.63
2023-02-02T11:19:39.539Z,5.75
2023-02-02T11:22:11.343Z,6.22
2023-02-02T11:24:41.995Z,6.82
2023-02-02T11:27:18.353Z,5.45
2023-02-02T11:29:47.699Z,4.65
2023-02-02T11:32:21.789Z,4.28
2023-02-02T11:34:50.096Z,5.60
2023-02-02T11:37:25.549Z,5.20
2023-02-02T11:39:54.063Z,5.75
2023-02-02T11:42:23.304Z,5.47
2023-02-02T11:44:52.368Z,4.20
2023-02-02T11:47:25.601Z,8.15
2023-02-02T11:49:54.718Z,4.97
2023-02-02T11:52:27.183Z,6.32
2023-02-02T11:55:01.163Z,2.95
2023-02-02T11:57:30.585Z,4.53
2023-02-02T12:00:08.409Z,2.83
2023-02-02T12:02:38.153Z,6.00
2023-02-02T12:05:31.559Z,5.78
2023-02-02T12:07:59.929Z,3.17
2023-02-02T12:10:34.505Z,4.75
2023-02-02T12:13:08.350Z,5.20
2023-02-02T12:15:41.531Z,4.63
2023-02-02T12:18:22.161Z,5.88
2023-02-02T12:20:51.596Z,8.13
2023-02-02T12:23:38.155Z,4.88
2023-02-02T12:26:22.714Z,6.40
2023-02-02T12:29:09.207Z,5.38
2023-02-02T12:31:42.503Z,5.53
2023-02-02T12:34:15.547Z,5.43
2023-02-02T12:36:50.172Z,6.05
2023-02-02T12:39:35.578Z,2.15
2023-02-02T12:42:35.774Z,3.30
2023-02-02T12:45:22.689Z,3.67
2023-02-02T12:47:54.895Z,2.42
2023-02-02T12:50:30.934Z,3.20
2023-02-02T12:53:09.237Z,4.57
2023-02-02T12:55:43.270Z,2.97
2023-02-02T12:58:17.081Z,6.43
2023-02-02T13:01:08.594Z,5.03
2023-02-02T13:03:41.042Z,3.88
2023-02-02T13:06:31.758Z,2.00
2023-02-02T13:09:01.865Z,4.32
2023-02-02T13:11:36.428Z,5.28
2023-02-02T13:14:09.307Z,2.25
2023-02-02T13:16:42.488Z,1.48
2023-02-02T13:19:15.251Z,1.70
2023-02-02T13:21:45.562Z,2.55
2023-02-02T13:24:16.506Z,3.20
2023-02-02T13:26:45.469Z,4.47
2023-02-02T13:29:20.687Z,1.77
2023-02-02T13:31:51.390Z,2.45
2023-02-02T13:34:22.170Z,2.03
2023-02-02T13:36:54.534Z,2.10
2023-02-02T13:39:24.891Z,1.58
2023-02-02T13:41:56.061Z,1.52
2023-02-02T13:44:26.713Z,3.08
2023-02-02T13:46:57.578Z,2.10
2023-02-02T13:49:27.645Z,2.05
2023-02-02T13:52:14.464Z,2.22
2023-02-02T13:55:16.823Z,1.63
2023-02-02T13:58:06.448Z,3.15
2023-02-02T14:00:35.714Z,7.78
2023-02-02T14:03:05.988Z,2.83
2023-02-02T14:05:35.765Z,1.92
2023-02-02T14:08:08.982Z,1.60
2023-02-02T14:10:38.428Z,3.45
2023-02-02T14:13:30.542Z,2.78
2023-02-02T14:15:59.258Z,1.90
2023-02-02T14:18:53.281Z,2.85
2023-02-02T14:21:58.794Z,1.70
2023-02-02T14:24:43.366Z,2.50
2023-02-02T14:27:48.925Z,18.10
2023-02-02T14:30:24.003Z,1.25
2023-02-02T14:32:55.019Z,2.05
2023-02-02T14:36:00.767Z,2.10
2023-02-02T14:38:38.678Z,2.17
2023-02-02T14:41:11.770Z,1.15
2023-02-02T14:43:46.083Z,1.52
2023-02-02T14:46:39.659Z,1.98
2023-02-02T14:49:18.528Z,2.70
2023-02-02T14:52:03.000Z,2.30
2023-02-02T14:54:34.168Z,4.93
2023-02-02T14:57:06.047Z,2.55
2023-02-02T14:59:36.115Z,2.03
2023-02-02T15:02:17.062Z,1.45
2023-02-02T15:04:47.800Z,2.92
2023-02-02T15:07:38.694Z,5.45
2023-02-02T15:10:09.318Z,2.47
2023-02-02T15:12:45.442Z,1.67
2023-02-02T15:15:19.546Z,0.65
2023-02-02T15:18:02.127Z,2.03
2023-02-02T15:20:32.321Z,1.80
2023-02-02T15:23:03.642Z,2.63
2023-02-02T15:25:34.928Z,1.63
2023-02-02T15:28:09.529Z,2.65
2023-02-02T15:30:40.044Z,3.60
2023-02-02T15:33:13.576Z,2.42
2023-02-02T15:35:41.881Z,1.83
2023-02-02T15:38:13.937Z,1.73
2023-02-02T15:40:42.279Z,1.52
2023-02-02T15:43:13.761Z,3.20
2023-02-02T15:45:44.445Z,5.80
2023-02-02T15:48:21.476Z,2.97
2023-02-02T15:50:55.530Z,5.50
2023-02-02T15:53:26.483Z,2.67
2023-02-02T15:55:55.019Z,5.38
2023-02-02T15:58:33.327Z,3.50
2023-02-02T16:01:06.554Z,3.58
2023-02-02T16:03:44.509Z,5.93
2023-02-02T16:06:12.829Z,3.22
2023-02-02T16:08:41.320Z,5.30
2023-02-02T16:11:11.484Z,1.20
2023-02-02T16:13:41.948Z,3.42
2023-02-02T16:16:22.831Z,1.92
2023-02-02T16:19:03.395Z,2.78
2023-02-02T16:21:31.937Z,2.85
2023-02-02T16:24:00.260Z,3.10
2023-02-02T16:26:30.075Z,2.92
2023-02-02T16:28:59.775Z,3.33
2023-02-02T16:31:37.429Z,3.17
2023-02-02T16:34:05.814Z,2.25
2023-02-02T16:36:34.122Z,2.30
2023-02-02T16:39:02.569Z,4.07
2023-02-02T16:41:34.586Z,2.42
2023-02-02T16:44:31.930Z,4.82
2023-02-02T16:47:01.991Z,2.83
2023-02-02T16:49:30.428Z,1.98
2023-02-02T16:52:14.120Z,7.50
2023-02-02T16:54:45.365Z,3.47
2023-02-02T16:57:18.359Z,2.70
2023-02-02T16:59:53.601Z,2.28
2023-02-02T17:02:26.038Z,2.22
2023-02-02T17:04:57.011Z,4.00
2023-02-02T17:07:25.313Z,3.00
2023-02-02T17:10:10.455Z,2.70
2023-02-02T17:12:38.816Z,8.55
2023-02-02T17:15:34.857Z,6.00
2023-02-02T17:18:20.912Z,6.57
2023-02-02T17:20:54.673Z,6.55
2023-02-02T17:23:23.524Z,6.68
2023-02-02T17:25:52.266Z,5.63
2023-02-02T17:28:21.672Z,9.07
2023-02-02T17:30:53.113Z,6.95
2023-02-02T17:33:21.536Z,5.75
2023-02-02T17:35:55.858Z,6.18
2023-02-02T17:38:27.702Z,6.03
2023-02-02T17:40:57.716Z,4.63
2023-02-02T17:43:26.957Z,3.42
2023-02-02T17:45:56.720Z,5.75
2023-02-02T17:48:25.089Z,3.10
2023-02-02T17:50:53.380Z,4.57
2023-02-02T17:53:25.039Z,6.97
2023-02-02T17:55:53.388Z,6.47
2023-02-02T17:58:21.689Z,6.10
2023-02-02T18:00:52.305Z,6.72
2023-02-02T18:03:23.344Z,3.75
2023-02-02T18:05:51.739Z,4.57
2023-02-02T18:08:20.064Z,4.28
2023-02-02T18:10:48.639Z,5.70
2023-02-02T18:13:18.999Z,4.68
2023-02-02T18:15:47.610Z,4.82
2023-02-02T18:18:16.032Z,5.18
2023-02-02T18:20:45.786Z,3.88
2023-02-02T18:23:14.325Z,3.05
2023-02-02T18:25:42.810Z,3.60
2023-02-02T18:28:15.211Z,5.63
2023-02-02T18:30:48.047Z,7.65
2023-02-02T18:33:19.531Z,3.80
2023-02-02T18:35:49.360Z,4.05
2023-02-02T18:38:18.057Z,3.83
2023-02-02T18:40:46.420Z,2.97
2023-02-02T18:43:14.725Z,7.05
2023-02-02T18:45:43.061Z,3.55
2023-02-02T18:48:11.363Z,2.72
2023-02-02T18:50:39.703Z,2.88
2023-02-02T18:53:09.440Z,6.80
2023-02-02T18:55:38.575Z,3.38
2023-02-02T18:58:10.499Z,4.25
2023-02-02T19:00:38.977Z,4.57
2023-02-02T19:03:07.269Z,5.07
2023-02-02T19:05:54.316Z,5.85
2023-02-02T19:08:24.184Z,3.92
2023-02-02T19:10:56.293Z,2.45
2023-02-02T19:13:24.590Z,3.13
2023-02-02T19:15:52.953Z,1.63
2023-02-02T19:18:21.951Z,3.55
2023-02-02T19:20:54.090Z,6.60
2023-02-02T19:23:24.572Z,3.95
2023-02-02T19:25:56.906Z,4.22
2023-02-02T19:28:28.251Z,2.17
2023-02-02T19:30:57.680Z,1.63
2023-02-02T19:33:36.654Z,2.35
2023-02-02T19:36:09.175Z,1.73
2023-02-02T19:38:38.846Z,3.70
2023-02-02T19:41:14.618Z,3.55
2023-02-02T19:43:47.479Z,4.93
2023-02-02T19:46:17.031Z,3.33
2023-02-02T19:48:45.535Z,2.58
2023-02-02T19:51:38.720Z,1.67
2023-02-02T19:54:30.401Z,2.25
2023-02-02T19:57:00.689Z,1.98
2023-02-02T19:59:33.594Z,1.42
2023-02-02T20:02:15.281Z,2.28
2023-02-02T20:04:43.597Z,4.30
2023-02-02T20:07:12.358Z,4.28
2023-02-02T20:09:43.737Z,1.48
2023-02-02T20:12:19.239Z,1.85
2023-02-02T20:14:47.544Z,3.60
2023-02-02T20:17:21.467Z,1.85
2023-02-02T20:19:49.779Z,3.38
2023-02-02T20:22:26.880Z,4.15
2023-02-02T20:27:31.059Z,2.45
2023-02-02T20:30:02.508Z,1.15
2023-02-02T20:32:37.763Z,2.00
2023-02-02T20:35:16.250Z,2.70
2023-02-02T20:37:45.199Z,2.80
2023-02-02T20:40:24.494Z,2.70
2023-02-02T20:42:53.155Z,2.03
2023-02-02T20:45:22.623Z,1.67
2023-02-02T20:47:51.395Z,1.95
2023-02-02T20:50:21.038Z,2.22
2023-02-02T20:52:49.476Z,1.67
2023-02-02T20:55:18.012Z,4.60
2023-02-02T20:57:48.045Z,3.65
2023-02-02T21:00:17.812Z,1.67
2023-02-02T21:02:46.213Z,3.70
2023-02-02T21:05:14.755Z,4.07
2023-02-02T21:07:43.249Z,3.13
2023-02-02T21:10:12.120Z,1.67
2023-02-02T21:12:40.549Z,3.05
2023-02-02T21:15:11.583Z,2.22
2023-02-02T21:17:40.579Z,2.80
2023-02-02T21:20:10.677Z,2.88
2023-02-02T21:22:39.156Z,2.08
2023-02-02T21:25:08.304Z,1.90
2023-02-02T21:27:37.672Z,4.72
2023-02-02T21:30:07.012Z,3.10
2023-02-02T21:32:36.791Z,2.30
2023-02-02T21:35:06.296Z,2.55
2023-02-02T21:37:35.746Z,3.67
2023-02-02T21:40:05.052Z,1.48
2023-02-02T21:42:33.476Z,2.40
2023-02-02T21:45:25.187Z,1.33
2023-02-02T21:47:55.618Z,2.00
2023-02-02T21:50:27.154Z,2.13
2023-02-02T21:52:59.410Z,3.00
2023-02-02T21:55:34.296Z,2.03
2023-02-02T21:58:09.100Z,3.03
2023-02-02T22:00:37.609Z,1.75
2023-02-02T22:03:29.749Z,2.47
2023-02-02T22:06:03.327Z,2.05
2023-02-02T22:08:31.804Z,2.38
2023-02-02T22:11:00.323Z,2.67
2023-02-02T22:13:33.929Z,2.15
2023-02-02T22:16:03.293Z,2.88
2023-02-02T22:18:33.174Z,4.70
2023-02-02T22:21:01.609Z,3.17
2023-02-02T22:23:30.165Z,1.73
2023-02-02T22:25:59.329Z,1.83
2023-02-02T22:28:28.914Z,2.20
2023-02-02T22:30:58.532Z,2.28
2023-02-02T22:33:27.284Z,4.47
2023-02-02T22:35:57.111Z,2.35
2023-02-02T22:38:25.950Z,2.22
2023-02-02T22:40:54.510Z,4.43
2023-02-02T22:43:23.002Z,3.30
2023-02-02T22:45:51.448Z,4.25
2023-02-02T22:48:19.930Z,3.83
2023-02-02T22:50:48.544Z,5.30
2023-02-02T22:53:18.328Z,1.90
2023-02-02T22:55:46.735Z,7.70
2023-02-02T22:58:15.269Z,6.15
2023-02-02T23:00:43.710Z,5.88
2023-02-02T23:03:12.129Z,9.82
2023-02-02T23:05:40.608Z,2.13
2023-02-02T23:08:09.172Z,5.60
2023-02-02T23:10:38.946Z,12.95
2023-02-02T23:13:07.420Z,15.30
2023-02-02T23:15:35.996Z,3.17
2023-02-02T23:18:04.824Z,5.47
2023-02-02T23:20:33.244Z,3.83
2023-02-02T23:23:01.679Z,6.60
2023-02-02T23:25:30.100Z,6.93
2023-02-02T23:28:00.013Z,3.38
2023-02-02T23:30:28.849Z,2.35
2023-02-02T23:32:57.424Z,4.20
2023-02-02T23:35:26.133Z,1.63
2023-02-02T23:37:54.566Z,3.33
2023-02-02T23:40:23.019Z,3.95
2023-02-02T23:42:51.473Z,4.20
2023-02-02T23:45:21.277Z,2.55
2023-02-02T23:47:49.700Z,5.43
2023-02-02T23:50:18.253Z,5.22
2023-02-02T23:52:46.781Z,4.15
2023-02-02T23:55:15.282Z,3.95
2023-02-02T23:57:43.781Z,3.33
